createdAt,value
2023-05-08T00:02:21.367Z,15.48
2023-05-08T00:04:49.405Z,15.48
2023-05-08T00:07:17.405Z,15.46
2023-05-08T00:09:46.132Z,15.44
2023-05-08T00:12:15.617Z,15.36
2023-05-08T00:14:43.550Z,15.26
2023-05-08T00:17:11.555Z,15.15
2023-05-08T00:19:39.502Z,14.97
2023-05-08T00:22:07.472Z,15.02
2023-05-08T00:24:35.393Z,15.10
2023-05-08T00:27:03.531Z,15.14
2023-05-08T00:29:32.811Z,15.08
2023-05-08T00:32:01.271Z,14.87
2023-05-08T00:34:29.273Z,14.82
2023-05-08T00:36:57.901Z,14.92
2023-05-08T00:39:25.985Z,15.03
2023-05-08T00:41:54.032Z,15.14
2023-05-08T00:44:22.057Z,15.20
2023-05-08T00:46:52.012Z,15.25
2023-05-08T00:49:20.196Z,15.28
2023-05-08T00:51:50.921Z,15.29
2023-05-08T00:54:19.080Z,15.31
2023-05-08T00:56:47.717Z,15.32
2023-05-08T00:59:17.599Z,15.34
2023-05-08T01:01:47.795Z,15.34
2023-05-08T01:04:20.850Z,15.34
2023-05-08T01:06:48.848Z,15.34
2023-05-08T01:09:16.804Z,15.32
2023-05-08T01:11:52.534Z,15.33
2023-05-08T01:14:22.569Z,15.37
2023-05-08T01:16:58.672Z,15.39
2023-05-08T01:19:53.998Z,15.34
2023-05-08T01:22:39.983Z,15.33
2023-05-08T01:25:45.556Z,15.30
2023-05-08T01:28:33.597Z,15.30
2023-05-08T01:31:13.027Z,15.33
2023-05-08T01:33:49.264Z,15.36
2023-05-08T01:36:24.883Z,15.34
2023-05-08T01:39:02.916Z,15.36
2023-05-08T01:41:33.134Z,15.35
2023-05-08T01:44:12.620Z,15.32
2023-05-08T01:46:40.697Z,15.35
2023-05-08T01:49:12.545Z,15.38
2023-05-08T01:51:44.803Z,15.36
2023-05-08T01:54:17.398Z,15.36
2023-05-08T01:56:48.124Z,15.35
2023-05-08T01:59:20.008Z,15.34
2023-05-08T02:01:49.263Z,15.35
2023-05-08T02:04:20.110Z,15.33
2023-05-08T02:06:48.443Z,15.32
2023-05-08T02:09:17.781Z,15.22
2023-05-08T02:11:47.173Z,14.98
2023-05-08T02:14:22.253Z,14.97
2023-05-08T02:16:52.451Z,14.97
2023-05-08T02:19:24.549Z,14.95
2023-05-08T02:21:53.212Z,14.97
2023-05-08T02:24:22.383Z,15.01
2023-05-08T02:26:51.553Z,15.11
2023-05-08T02:29:20.829Z,15.13
2023-05-08T02:31:50.032Z,15.16
2023-05-08T02:34:19.671Z,15.14
2023-05-08T02:36:50.487Z,15.15
2023-05-08T02:39:21.521Z,15.15
2023-05-08T02:41:50.133Z,15.14
2023-05-08T02:44:18.187Z,15.13
2023-05-08T02:46:50.559Z,15.14
2023-05-08T02:49:28.707Z,15.13
2023-05-08T02:52:05.509Z,15.09
2023-05-08T02:54:39.318Z,15.07
2023-05-08T02:57:18.551Z,15.03
2023-05-08T02:59:53.011Z,15.01
2023-05-08T03:02:30.030Z,14.97
2023-05-08T03:05:04.404Z,14.90
2023-05-08T03:07:39.494Z,14.88
2023-05-08T03:10:13.166Z,14.83
2023-05-08T03:12:45.710Z,14.83
2023-05-08T03:15:19.567Z,14.84
2023-05-08T03:17:50.097Z,14.84
2023-05-08T03:20:20.749Z,14.78
2023-05-08T03:22:54.100Z,14.73
2023-05-08T03:25:22.920Z,14.71
2023-05-08T03:27:53.127Z,14.70
2023-05-08T03:30:22.311Z,14.69
2023-05-08T03:33:03.156Z,14.67
2023-05-08T03:35:32.746Z,14.66
2023-05-08T03:38:02.498Z,14.61
2023-05-08T03:40:30.957Z,14.59
2023-05-08T03:43:01.668Z,14.59
2023-05-08T03:45:30.394Z,14.55
2023-05-08T03:48:00.957Z,14.52
2023-05-08T03:50:29.498Z,14.47
2023-05-08T03:52:59.166Z,14.47
2023-05-08T03:55:28.599Z,14.44
2023-05-08T03:58:02.195Z,14.39
2023-05-08T04:00:51.594Z,14.41
2023-05-08T04:03:25.702Z,14.40
2023-05-08T04:06:02.045Z,14.37
2023-05-08T04:08:33.507Z,14.39
2023-05-08T04:11:13.345Z,14.71
2023-05-08T04:13:50.036Z,14.45
2023-05-08T04:16:22.820Z,14.34
2023-05-08T04:18:55.513Z,14.21
2023-05-08T04:21:26.535Z,14.26
2023-05-08T04:23:58.175Z,14.28
2023-05-08T04:26:30.735Z,14.29
2023-05-08T04:29:00.906Z,14.30
2023-05-08T04:31:30.175Z,14.32
2023-05-08T04:33:58.473Z,14.31
2023-05-08T04:36:29.541Z,14.28
2023-05-08T04:38:59.301Z,14.29
2023-05-08T04:41:29.309Z,14.35
2023-05-08T04:43:57.840Z,14.39
2023-05-08T04:46:26.026Z,14.29
2023-05-08T04:48:54.052Z,14.27
2023-05-08T04:51:21.976Z,14.36
2023-05-08T04:53:49.981Z,14.44
2023-05-08T04:56:19.370Z,14.53
2023-05-08T04:58:48.788Z,14.61
2023-05-08T05:01:17.119Z,14.66
2023-05-08T05:03:45.203Z,14.72
2023-05-08T05:06:13.108Z,14.72
2023-05-08T05:08:41.182Z,14.75
2023-05-08T05:11:09.216Z,14.78
2023-05-08T05:13:37.174Z,14.77
2023-05-08T05:16:07.690Z,14.74
2023-05-08T05:18:35.722Z,14.78
2023-05-08T05:21:03.732Z,14.84
2023-05-08T05:23:31.785Z,14.87
2023-05-08T05:26:00.920Z,14.91
2023-05-08T05:28:29.525Z,14.91
2023-05-08T05:30:57.747Z,14.91
2023-05-08T05:33:27.246Z,14.92
2023-05-08T05:35:55.434Z,14.95
2023-05-08T05:38:23.972Z,15.01
2023-05-08T05:40:52.042Z,15.07
2023-05-08T05:43:20.032Z,15.08
2023-05-08T05:45:48.034Z,15.11
2023-05-08T05:48:16.188Z,15.15
2023-05-08T05:50:48.267Z,15.16
2023-05-08T05:53:16.340Z,15.15
2023-05-08T05:55:44.363Z,15.15
2023-05-08T05:58:12.349Z,15.11
2023-05-08T06:00:40.344Z,15.12
2023-05-08T06:03:08.421Z,15.14
2023-05-08T06:05:37.581Z,15.16
2023-05-08T06:08:07.272Z,15.16
2023-05-08T06:10:35.490Z,15.19
2023-05-08T06:13:03.524Z,15.24
2023-05-08T06:15:31.657Z,15.30
2023-05-08T06:17:59.714Z,15.35
2023-05-08T06:20:27.821Z,15.39
2023-05-08T06:22:55.886Z,15.40
2023-05-08T06:25:25.470Z,15.42
2023-05-08T06:27:53.409Z,15.42
2023-05-08T06:30:21.501Z,15.42
2023-05-08T06:32:49.809Z,15.44
2023-05-08T06:35:19.457Z,15.47
2023-05-08T06:37:47.761Z,15.49
2023-05-08T06:40:15.926Z,15.51
2023-05-08T06:42:45.195Z,15.53
2023-05-08T06:45:13.747Z,15.54
2023-05-08T06:47:41.913Z,15.54
2023-05-08T06:50:10.769Z,15.53
2023-05-08T06:52:38.714Z,15.54
2023-05-08T06:55:07.425Z,15.59
2023-05-08T06:57:35.541Z,15.61
2023-05-08T07:00:06.141Z,15.66
2023-05-08T07:02:34.103Z,15.70
2023-05-08T07:05:03.285Z,15.79
2023-05-08T07:07:31.603Z,15.84
2023-05-08T07:09:59.725Z,15.87
2023-05-08T07:12:27.652Z,15.90
2023-05-08T07:14:56.637Z,15.95
2023-05-08T07:17:27.581Z,16.00
2023-05-08T07:19:55.540Z,16.07
2023-05-08T07:22:23.499Z,16.13
2023-05-08T07:24:51.485Z,16.13
2023-05-08T07:27:20.234Z,16.15
2023-05-08T07:29:48.172Z,16.13
2023-05-08T07:32:16.405Z,16.12
2023-05-08T07:34:45.706Z,16.14
2023-05-08T07:37:14.017Z,16.15
2023-05-08T07:39:41.955Z,16.14
2023-05-08T07:42:09.978Z,16.16
2023-05-08T07:44:47.210Z,16.17
2023-05-08T07:47:22.210Z,16.24
2023-05-08T07:49:51.543Z,16.42
2023-05-08T07:52:19.483Z,16.56
2023-05-08T07:54:47.412Z,16.64
2023-05-08T07:57:15.321Z,16.61
2023-05-08T07:59:43.208Z,16.52
2023-05-08T08:02:11.286Z,16.56
2023-05-08T08:04:39.582Z,16.71
2023-05-08T08:07:08.995Z,16.80
2023-05-08T08:09:36.967Z,16.81
2023-05-08T08:12:04.981Z,16.80
2023-05-08T08:14:33.133Z,16.62
2023-05-08T08:17:01.492Z,16.62
2023-05-08T08:19:29.571Z,16.88
2023-05-08T08:21:57.499Z,16.99
2023-05-08T08:24:26.792Z,17.05
2023-05-08T08:26:54.753Z,17.24
2023-05-08T08:29:22.681Z,17.42
2023-05-08T08:31:50.631Z,17.46
2023-05-08T08:34:18.521Z,17.57
2023-05-08T08:36:46.433Z,17.64
2023-05-08T08:39:15.439Z,17.77
2023-05-08T08:41:45.598Z,17.90
2023-05-08T08:44:13.537Z,18.12
2023-05-08T08:46:50.710Z,18.12
2023-05-08T08:49:20.183Z,18.09
2023-05-08T08:51:53.792Z,18.04
2023-05-08T08:54:24.471Z,18.00
2023-05-08T08:56:54.767Z,17.89
2023-05-08T08:59:26.164Z,17.86
2023-05-08T09:01:57.926Z,17.81
2023-05-08T09:04:27.498Z,17.79
2023-05-08T09:06:55.705Z,17.67
2023-05-08T09:09:24.299Z,17.59
2023-05-08T09:11:54.466Z,17.58
2023-05-08T09:14:24.507Z,17.46
2023-05-08T09:16:52.766Z,17.48
2023-05-08T09:19:22.708Z,17.43
2023-05-08T09:21:52.977Z,17.24
2023-05-08T09:24:20.874Z,17.34
2023-05-08T09:26:48.751Z,17.49
2023-05-08T09:29:20.018Z,17.65
2023-05-08T09:31:50.167Z,17.76
2023-05-08T09:34:27.138Z,17.86
2023-05-08T09:36:55.643Z,17.96
2023-05-08T09:39:25.591Z,18.01
2023-05-08T09:42:00.784Z,18.02
2023-05-08T09:44:30.495Z,18.10
2023-05-08T09:47:11.629Z,18.13
2023-05-08T09:49:40.783Z,18.09
2023-05-08T09:52:09.009Z,18.10
2023-05-08T09:54:36.995Z,18.04
2023-05-08T09:57:13.464Z,18.37
2023-05-08T09:59:42.825Z,18.75
2023-05-08T10:02:16.368Z,18.85
2023-05-08T10:04:44.451Z,19.09
2023-05-08T10:07:12.393Z,19.29
2023-05-08T10:09:50.297Z,19.52
2023-05-08T10:12:19.692Z,19.35
2023-05-08T10:14:49.008Z,18.99
2023-05-08T10:17:22.596Z,18.76
2023-05-08T10:19:56.128Z,18.62
2023-05-08T10:22:26.369Z,18.45
2023-05-08T10:24:57.795Z,18.38
2023-05-08T10:27:35.960Z,18.35
2023-05-08T10:30:06.105Z,18.39
2023-05-08T10:32:40.668Z,18.50
2023-05-08T10:35:12.112Z,18.71
2023-05-08T10:37:42.302Z,19.00
2023-05-08T10:40:12.157Z,18.95
2023-05-08T10:42:41.091Z,18.91
2023-05-08T10:45:11.684Z,18.84
2023-05-08T10:47:49.790Z,18.86
2023-05-08T10:50:29.966Z,18.81
2023-05-08T10:53:08.316Z,18.93
2023-05-08T10:55:38.602Z,19.27
2023-05-08T10:58:10.389Z,19.32
2023-05-08T11:01:15.074Z,19.25
2023-05-08T11:03:45.750Z,19.34
2023-05-08T11:06:14.676Z,19.29
2023-05-08T11:08:54.615Z,19.19
2023-05-08T11:11:32.053Z,19.05
2023-05-08T11:14:11.632Z,19.22
2023-05-08T11:17:09.178Z,19.19
2023-05-08T11:19:38.609Z,19.12
2023-05-08T11:22:24.935Z,19.16
2023-05-08T11:25:01.078Z,19.47
2023-05-08T11:27:37.526Z,19.70
2023-05-08T11:30:23.303Z,19.80
2023-05-08T11:32:59.717Z,19.80
2023-05-08T11:35:46.689Z,19.48
2023-05-08T11:38:23.585Z,19.32
2023-05-08T11:40:59.527Z,19.27
2023-05-08T11:43:55.690Z,19.22
2023-05-08T11:46:23.708Z,19.11
2023-05-08T11:48:59.898Z,19.01
2023-05-08T11:51:32.680Z,19.05
2023-05-08T11:54:01.159Z,19.12
2023-05-08T11:56:29.341Z,19.11
2023-05-08T11:59:04.658Z,19.08
2023-05-08T12:01:33.240Z,19.08
2023-05-08T12:04:03.616Z,19.11
2023-05-08T12:06:32.667Z,19.13
2023-05-08T12:09:01.208Z,19.20
2023-05-08T12:11:29.168Z,19.24
2023-05-08T12:13:57.083Z,19.22
2023-05-08T12:16:25.914Z,19.25
2023-05-08T12:18:54.600Z,19.29
2023-05-08T12:21:24.050Z,19.36
2023-05-08T12:23:51.998Z,19.48
2023-05-08T12:26:19.941Z,19.55
2023-05-08T12:28:48.563Z,19.46
2023-05-08T12:31:16.785Z,19.48
2023-05-08T12:33:44.919Z,19.57
2023-05-08T12:36:12.931Z,19.61
2023-05-08T12:38:42.263Z,19.62
2023-05-08T12:41:11.227Z,19.62
2023-05-08T12:43:39.176Z,19.59
2023-05-08T12:46:07.349Z,19.54
2023-05-08T12:48:35.326Z,19.45
2023-05-08T12:51:04.965Z,19.41
2023-05-08T12:53:33.950Z,19.34
2023-05-08T12:56:05.425Z,19.22
2023-05-08T12:58:35.776Z,19.07
2023-05-08T13:01:13.194Z,18.93
2023-05-08T13:03:42.364Z,18.91
2023-05-08T13:06:21.844Z,18.82
2023-05-08T13:08:55.497Z,18.73
2023-05-08T13:11:33.059Z,18.70
2023-05-08T13:14:01.190Z,18.66
2023-05-08T13:16:29.594Z,18.73
2023-05-08T13:18:57.608Z,18.81
2023-05-08T13:21:27.537Z,18.74
2023-05-08T13:23:56.796Z,18.71
2023-05-08T13:26:25.689Z,18.79
2023-05-08T13:28:56.576Z,18.75
2023-05-08T13:31:24.842Z,18.71
2023-05-08T13:33:52.819Z,18.67
2023-05-08T13:36:21.534Z,18.63
2023-05-08T13:38:51.377Z,18.59
2023-05-08T13:41:19.287Z,18.51
2023-05-08T13:43:48.198Z,18.44
2023-05-08T13:46:17.616Z,18.39
2023-05-08T13:48:45.592Z,18.36
2023-05-08T13:51:13.512Z,18.37
2023-05-08T13:53:41.423Z,18.38
2023-05-08T13:56:09.389Z,18.33
2023-05-08T13:58:37.365Z,18.32
2023-05-08T14:01:17.665Z,18.41
2023-05-08T14:03:51.873Z,18.43
2023-05-08T14:06:20.537Z,18.45
2023-05-08T14:08:51.510Z,18.54
2023-05-08T14:11:20.871Z,18.54
2023-05-08T14:13:48.819Z,18.62
2023-05-08T14:16:16.938Z,18.82
2023-05-08T14:18:44.985Z,18.93
2023-05-08T14:21:14.261Z,19.04
2023-05-08T14:23:42.786Z,19.14
2023-05-08T14:26:10.715Z,19.18
2023-05-08T14:28:38.646Z,19.10
2023-05-08T14:31:06.873Z,19.16
2023-05-08T14:33:34.862Z,19.31
2023-05-08T14:36:02.811Z,19.65
2023-05-08T14:38:32.521Z,19.75
2023-05-08T14:41:04.287Z,19.63
2023-05-08T14:43:32.946Z,19.64
2023-05-08T14:46:01.788Z,19.79
2023-05-08T14:48:29.721Z,19.84
2023-05-08T14:50:57.686Z,19.91
2023-05-08T14:53:25.937Z,20.07
2023-05-08T14:55:55.595Z,20.15
2023-05-08T14:58:23.915Z,20.02
2023-05-08T15:00:51.846Z,19.99
2023-05-08T15:03:20.076Z,19.95
2023-05-08T15:05:48.418Z,19.92
2023-05-08T15:08:16.573Z,19.85
2023-05-08T15:10:44.703Z,19.77
2023-05-08T15:13:14.026Z,19.77
2023-05-08T15:15:42.208Z,19.76
2023-05-08T15:18:10.193Z,19.71
2023-05-08T15:20:38.113Z,19.73
2023-05-08T15:23:06.025Z,19.74
2023-05-08T15:25:33.990Z,19.72
2023-05-08T15:28:01.940Z,19.69
2023-05-08T15:30:31.209Z,19.65
2023-05-08T15:32:59.167Z,19.65
2023-05-08T15:35:27.280Z,19.65
2023-05-08T15:37:55.213Z,19.64
2023-05-08T15:40:23.149Z,19.62
2023-05-08T15:42:51.086Z,19.65
2023-05-08T15:45:19.034Z,19.66
2023-05-08T15:47:48.350Z,19.58
2023-05-08T15:50:16.384Z,19.56
2023-05-08T15:52:44.313Z,19.61
2023-05-08T15:55:12.898Z,19.66
2023-05-08T15:57:40.925Z,19.71
2023-05-08T16:00:10.286Z,19.78
2023-05-08T16:02:38.275Z,19.79
2023-05-08T16:05:08.303Z,19.81
2023-05-08T16:07:36.245Z,19.83
2023-05-08T16:10:05.500Z,19.85
2023-05-08T16:12:35.213Z,19.90
2023-05-08T16:15:03.194Z,19.89
2023-05-08T16:17:31.128Z,19.97
2023-05-08T16:20:00.662Z,20.05
2023-05-08T16:22:29.944Z,20.10
2023-05-08T16:24:58.125Z,20.07
2023-05-08T16:27:25.979Z,20.04
2023-05-08T16:29:53.904Z,19.93
2023-05-08T16:32:21.846Z,19.88
2023-05-08T16:34:49.819Z,19.84
2023-05-08T16:37:17.756Z,19.81
2023-05-08T16:39:47.047Z,19.75
2023-05-08T16:42:15.000Z,19.65
2023-05-08T16:44:42.904Z,19.66
2023-05-08T16:47:11.066Z,19.72
2023-05-08T16:49:39.110Z,19.93
2023-05-08T16:52:07.120Z,20.26
2023-05-08T16:54:35.058Z,20.30
2023-05-08T16:57:04.521Z,20.42
2023-05-08T16:59:32.701Z,20.44
2023-05-08T17:02:00.606Z,20.44
2023-05-08T17:04:30.728Z,20.43
2023-05-08T17:07:00.003Z,20.38
2023-05-08T17:09:28.598Z,20.30
2023-05-08T17:11:58.195Z,20.50
2023-05-08T17:14:27.565Z,20.66
2023-05-08T17:16:55.510Z,20.58
2023-05-08T17:19:23.492Z,20.67
2023-05-08T17:21:51.494Z,20.91
2023-05-08T17:24:19.663Z,20.97
2023-05-08T17:26:47.660Z,20.89
2023-05-08T17:29:15.905Z,20.76
2023-05-08T17:31:45.260Z,20.61
2023-05-08T17:34:13.254Z,20.51
2023-05-08T17:36:41.235Z,20.31
2023-05-08T17:39:09.389Z,20.18
2023-05-08T17:41:37.341Z,20.10
2023-05-08T17:44:05.656Z,20.04
2023-05-08T17:46:33.595Z,20.00
2023-05-08T17:49:02.878Z,20.01
2023-05-08T17:51:31.106Z,19.98
2023-05-08T17:53:59.100Z,19.92
2023-05-08T17:56:27.136Z,19.83
2023-05-08T17:58:55.608Z,19.76
2023-05-08T18:01:24.865Z,19.69
2023-05-08T18:03:54.194Z,19.60
2023-05-08T18:06:23.478Z,19.50
2023-05-08T18:08:51.494Z,19.43
2023-05-08T18:11:20.440Z,19.41
2023-05-08T18:13:48.613Z,19.33
2023-05-08T18:16:18.486Z,19.30
2023-05-08T18:18:46.506Z,19.25
2023-05-08T18:21:14.772Z,19.16
2023-05-08T18:23:44.240Z,19.18
2023-05-08T18:26:15.053Z,19.18
2023-05-08T18:28:43.516Z,19.14
2023-05-08T18:31:11.796Z,19.12
2023-05-08T18:33:39.841Z,19.03
2023-05-08T18:36:08.054Z,19.02
2023-05-08T18:38:36.485Z,18.95
2023-05-08T18:41:06.411Z,18.92
2023-05-08T18:43:34.614Z,18.85
2023-05-08T18:46:09.094Z,18.75
2023-05-08T18:48:37.235Z,18.72
2023-05-08T18:51:05.704Z,18.73
2023-05-08T18:53:34.194Z,18.72
2023-05-08T18:56:03.477Z,18.68
2023-05-08T18:58:32.829Z,18.67
2023-05-08T19:01:01.352Z,18.64
2023-05-08T19:03:29.506Z,18.62
2023-05-08T19:05:57.514Z,18.55
2023-05-08T19:08:25.678Z,18.48
2023-05-08T19:10:54.012Z,18.44
2023-05-08T19:13:22.058Z,18.38
2023-05-08T19:15:51.511Z,18.33
2023-05-08T19:18:19.454Z,18.29
2023-05-08T19:20:47.404Z,18.23
2023-05-08T19:23:17.340Z,18.14
2023-05-08T19:25:45.460Z,18.06
2023-05-08T19:28:13.439Z,18.00
2023-05-08T19:30:41.392Z,17.94
2023-05-08T19:33:10.745Z,17.89
2023-05-08T19:35:38.664Z,17.89
2023-05-08T19:38:06.588Z,17.85
2023-05-08T19:40:44.510Z,17.79
2023-05-08T19:43:20.316Z,17.73
2023-05-08T19:45:48.395Z,17.77
2023-05-08T19:48:19.638Z,17.74
2023-05-08T19:50:47.638Z,17.67
2023-05-08T19:53:15.776Z,17.65
2023-05-08T19:55:43.794Z,17.57
2023-05-08T19:58:11.812Z,17.54
2023-05-08T20:00:39.756Z,17.57
2023-05-08T20:03:07.780Z,17.63
2023-05-08T20:05:37.194Z,17.66
2023-05-08T20:08:05.398Z,17.62
2023-05-08T20:10:33.416Z,17.62
2023-05-08T20:13:01.451Z,17.66
2023-05-08T20:15:29.512Z,17.66
2023-05-08T20:17:59.213Z,17.65
2023-05-08T20:20:29.408Z,17.65
2023-05-08T20:22:59.031Z,17.62
2023-05-08T20:25:27.085Z,17.62
2023-05-08T20:27:55.031Z,17.60
2023-05-08T20:30:23.835Z,17.52
2023-05-08T20:32:52.103Z,17.49
2023-05-08T20:35:20.275Z,17.52
2023-05-08T20:37:49.426Z,17.54
2023-05-08T20:40:18.972Z,17.56
2023-05-08T20:42:46.946Z,17.53
2023-05-08T20:45:15.029Z,17.47
2023-05-08T20:47:43.010Z,17.50
2023-05-08T20:50:11.715Z,17.49
2023-05-08T20:52:41.856Z,17.44
2023-05-08T20:55:11.112Z,17.28
2023-05-08T20:57:40.683Z,17.29
2023-05-08T21:00:09.923Z,17.30
2023-05-08T21:02:40.126Z,17.27
2023-05-08T21:05:09.141Z,17.25
2023-05-08T21:07:37.270Z,17.18
2023-05-08T21:10:05.833Z,17.12
2023-05-08T21:12:33.780Z,17.09
2023-05-08T21:15:03.397Z,17.03
2023-05-08T21:17:31.417Z,17.02
2023-05-08T21:19:59.382Z,16.96
2023-05-08T21:22:27.302Z,16.91
2023-05-08T21:24:55.226Z,16.90
2023-05-08T21:27:23.202Z,16.92
2023-05-08T21:29:51.349Z,16.94
2023-05-08T21:32:20.728Z,16.93
2023-05-08T21:34:48.794Z,16.92
2023-05-08T21:37:16.685Z,16.88
2023-05-08T21:39:44.688Z,16.72
2023-05-08T21:42:12.730Z,16.36
2023-05-08T21:44:40.660Z,16.15
2023-05-08T21:47:08.636Z,16.27
2023-05-08T21:49:37.983Z,16.39
2023-05-08T21:52:06.113Z,16.50
2023-05-08T21:54:34.037Z,16.60
2023-05-08T21:57:01.971Z,16.62
2023-05-08T21:59:29.935Z,16.61
2023-05-08T22:01:57.911Z,16.62
2023-05-08T22:04:25.948Z,16.63
2023-05-08T22:06:55.270Z,16.64
2023-05-08T22:09:23.237Z,16.67
2023-05-08T22:11:52.461Z,16.72
2023-05-08T22:14:20.491Z,16.74
2023-05-08T22:16:48.440Z,16.73
2023-05-08T22:19:16.536Z,16.71
2023-05-08T22:21:44.456Z,16.72
2023-05-08T22:24:15.054Z,16.71
2023-05-08T22:26:43.180Z,16.71
2023-05-08T22:29:11.144Z,16.64
2023-05-08T22:31:39.219Z,16.60
2023-05-08T22:34:07.162Z,16.58
2023-05-08T22:36:35.230Z,16.57
2023-05-08T22:39:03.824Z,16.52
2023-05-08T22:41:33.231Z,16.49
2023-05-08T22:44:01.632Z,16.46
2023-05-08T22:46:29.936Z,16.44
2023-05-08T22:48:57.936Z,16.43
2023-05-08T22:51:26.032Z,16.40
2023-05-08T22:53:54.264Z,16.42
2023-05-08T22:56:22.212Z,16.41
2023-05-08T22:58:51.505Z,16.39
2023-05-08T23:01:19.576Z,16.33
2023-05-08T23:03:47.691Z,16.34
2023-05-08T23:06:15.662Z,16.32
2023-05-08T23:08:43.555Z,16.30
2023-05-08T23:11:11.530Z,16.25
2023-05-08T23:13:39.440Z,16.26
2023-05-08T23:16:08.908Z,16.23
2023-05-08T23:18:36.946Z,16.18
2023-05-08T23:21:08.412Z,16.12
2023-05-08T23:23:36.966Z,16.06
2023-05-08T23:26:05.874Z,16.03
2023-05-08T23:28:34.380Z,15.99
2023-05-08T23:31:02.513Z,15.97
2023-05-08T23:33:31.875Z,15.93
2023-05-08T23:36:00.354Z,15.97
2023-05-08T23:38:28.318Z,16.01
2023-05-08T23:40:56.263Z,16.01
2023-05-08T23:43:24.197Z,15.96
2023-05-08T23:45:52.180Z,15.96
2023-05-08T23:48:20.093Z,15.96
2023-05-08T23:50:49.356Z,15.97
2023-05-08T23:53:17.309Z,15.97
2023-05-08T23:55:45.284Z,15.99
2023-05-08T23:58:13.198Z,16.00
